Huvudsida
METAR-TAF:

METAR-TAF

Flygplatser :

Capri, Italien

latitud: 40-33N, longitud: 014-12E, höjd: 160 m

Aktuellt väderrapport

Denna rapport gjordes för 1 timme och 15 minuter sedan, klockan 12:55 UTC
Vind 5 kt från syd/sydost
Temperatur 15°C
Fuktighet 31%
Tryck 1030 hPa
Sikt 10 km eller mer
Inga moln under 1 500 m eller inga cumulonimbus

METAR: LIQC 221255Z 15005KT CAVOK 15/M02 Q1030 RMK SKC QUK 2 QUL 1 W VIS MAR 20 KM VIS MIN 9999

Tid: 15:10 (14:10 UTC)


TAF: saknas

Aktuella väderrapporter och prognoser från 4000 flygplatser (METAR- och TAF-rapporter).

De tillgängliga stationerna syns som gula och röda prickar på kartan.

För musen över prickarna för att se namnen på stationerna.

Klicka sedan för att få väderrapporter och prognoser.

För att ändra kartan: Klicka på de gröna knapparna med ett svart kors på för att zooma in; den gröna knappen med ett streck på för att zooma ut; eller på de gröna pilarna för angränsande kartor.


METAR-TAF: